Time;durP1;ratioP1;P1;durP2;ratioP2;P2;SDS_P1;SDS_P2;PMS_P1;PMS_P2;Temp;Humidity;BMP_temperature;BMP_pressure;BME280_temperature;BME280_humidity;BME280_pressure;Samples;Min_cycle;Max_cycle;Signal;HPM_P1;HPM_P2
2022/09/11 00:01:39;;;;;;;33.60;25.90;;;;;;;13.73;100.00;101669.03;5088453;28;20036;-62
2022/09/11 00:04:05;;;;;;;36.72;28.40;;;;;;;13.72;100.00;101667.34;5088389;28;20020;-61
2022/09/11 00:06:31;;;;;;;36.33;27.13;;;;;;;13.73;100.00;101661.56;5090657;28;20032;-62
2022/09/11 00:08:59;;;;;;;33.60;25.40;;;;;;;13.72;100.00;101659.91;5087295;28;20039;-62
2022/09/11 00:11:25;;;;;;;;;;;;;;;13.80;100.00;101658.75;5088125;28;20052;-62
2022/09/11 00:13:52;;;;;;;36.03;25.63;;;;;;;13.66;100.00;101652.56;5088126;28;19916;-62
2022/09/11 00:16:34;;;;;;;33.42;25.67;;;;;;;13.69;100.00;101648.50;5089609;28;22294;-62
2022/09/11 00:19:03;;;;;;;36.22;26.77;;;;;;;13.63;100.00;101665.97;5086971;28;20051;-62
2022/09/11 00:21:29;;;;;;;33.13;25.98;;;;;;;13.62;100.00;101658.75;5088574;28;20028;-62
2022/09/11 00:23:55;;;;;;;32.63;25.05;;;;;;;13.58;100.00;101668.56;5087916;28;20027;-63
2022/09/11 00:26:21;;;;;;;36.47;27.23;;;;;;;13.55;100.00;101660.78;5089199;28;20104;-61
2022/09/11 00:28:47;;;;;;;38.08;26.52;;;;;;;13.52;100.00;101662.06;5088703;28;20593;-62
2022/09/11 00:31:21;;;;;;;33.05;26.23;;;;;;;13.53;100.00;101662.91;5087323;28;20406;-62
2022/09/11 00:33:46;;;;;;;34.03;26.05;;;;;;;13.52;100.00;101658.47;5088678;28;20028;-62
2022/09/11 00:36:17;;;;;;;39.38;27.75;;;;;;;13.53;100.00;101662.91;5087676;28;20481;-62
2022/09/11 00:38:44;;;;;;;36.35;26.27;;;;;;;13.49;100.00;101666.13;5086385;28;20039;-62
2022/09/11 00:41:14;;;;;;;34.75;27.20;;;;;;;13.48;100.00;101672.75;5079129;28;20029;-62
2022/09/11 00:44:17;;;;;;;31.90;25.63;;;;;;;13.49;100.00;101666.13;5088596;28;20107;-62
2022/09/11 00:46:47;;;;;;;36.35;25.15;;;;;;;13.40;100.00;101674.94;5017616;28;20393;-62
2022/09/11 00:49:33;;;;;;;33.90;25.42;;;;;;;13.37;100.00;101675.41;5085456;28;20036;-62
2022/09/11 00:52:04;;;;;;;34.95;25.45;;;;;;;13.36;100.00;101680.06;5084431;28;20036;-63
2022/09/11 00:54:34;;;;;;;38.83;26.45;;;;;;;13.34;100.00;101685.00;5087275;28;20038;-61
2022/09/11 00:57:03;;;;;;;38.35;27.08;;;;;;;13.32;100.00;101678.84;5083093;28;20036;-62
2022/09/11 00:59:30;;;;;;;36.75;26.60;;;;;;;13.32;100.00;101673.31;5087861;28;20028;-62
2022/09/11 01:01:55;;;;;;;38.93;28.83;;;;;;;13.30;100.00;101672.72;5086649;28;20051;-62
2022/09/11 01:04:22;;;;;;;38.33;27.48;;;;;;;13.35;100.00;101675.63;5088101;28;20747;-62
2022/09/11 01:06:51;;;;;;;32.85;26.48;;;;;;;13.36;100.00;101682.84;5088374;28;20027;-62
2022/09/11 01:09:17;;;;;;;37.83;27.80;;;;;;;13.35;100.00;101680.31;5087571;28;20040;-62
2022/09/11 01:12:05;;;;;;;35.45;26.80;;;;;;;13.36;100.00;101693.88;5117118;22;20054;-62
2022/09/11 01:14:46;;;;;;;37.60;26.35;;;;;;;13.33;100.00;101687.97;5007709;28;20074;-62
2022/09/11 01:17:50;;;;;;;38.83;27.17;;;;;;;13.34;100.00;101689.66;5018919;28;20056;-62
2022/09/11 01:20:28;;;;;;;39.60;26.60;;;;;;;13.32;100.00;101695.41;5011851;28;20428;-62
2022/09/11 01:23:18;;;;;;;38.83;28.33;;;;;;;13.35;100.00;101703.22;5017621;28;20144;-62
2022/09/11 01:26:05;;;;;;;43.80;30.42;;;;;;;13.32;100.00;101687.13;5010968;28;20042;-62
2022/09/11 01:28:43;;;;;;;42.45;30.17;;;;;;;13.33;100.00;101697.09;5015725;28;20038;-62
2022/09/11 01:31:11;;;;;;;42.22;30.23;;;;;;;13.30;100.00;101692.03;5016047;28;20034;-62
2022/09/11 01:33:44;;;;;;;38.97;29.45;;;;;;;13.31;100.00;101690.13;5026152;28;20639;-61
2022/09/11 01:36:21;;;;;;;41.13;30.90;;;;;;;13.27;100.00;101702.66;5013513;28;20037;-62
2022/09/11 01:39:07;;;;;;;40.80;29.73;;;;;;;13.25;100.00;101702.91;5021856;28;20117;-61
2022/09/11 01:41:39;;;;;;;39.47;29.20;;;;;;;13.22;100.00;101700.59;5010338;28;20029;-63
2022/09/11 01:44:10;;;;;;;39.80;29.27;;;;;;;13.20;100.00;101702.72;5021223;28;20037;-62
2022/09/11 01:46:40;;;;;;;38.85;27.98;;;;;;;13.18;100.00;101707.63;5019314;28;20030;-61
2022/09/11 01:49:19;;;;;;;41.63;30.42;;;;;;;13.18;100.00;101708.47;5007704;28;20134;-62
2022/09/11 01:51:48;;;;;;;42.17;30.73;;;;;;;13.17;100.00;101705.91;5014689;28;20048;-61
2022/09/11 01:54:18;;;;;;;39.53;30.27;;;;;;;13.16;100.00;101712.50;5011039;28;20026;-61
2022/09/11 01:56:54;;;;;;;46.10;30.10;;;;;;;13.17;100.00;101716.94;5008532;28;20037;-61
2022/09/11 01:59:26;;;;;;;42.25;30.65;;;;;;;13.14;100.00;101714.66;5008920;28;20038;-62
2022/09/11 02:02:09;;;;;;;34.08;26.73;;;;;;;13.11;100.00;101702.16;5021761;28;20029;-62
2022/09/11 02:04:39;;;;;;;46.05;31.83;;;;;;;13.10;100.00;101711.50;5023273;28;20104;-62
2022/09/11 02:07:29;;;;;;;40.33;28.98;;;;;;;13.11;100.00;101704.91;5026169;28;20468;-62
2022/09/11 02:10:17;;;;;;;37.20;27.92;;;;;;;13.09;100.00;101704.31;5007690;28;20034;-62
2022/09/11 02:12:49;;;;;;;37.80;27.02;;;;;;;12.97;100.00;101704.19;5007759;28;20089;-61
2022/09/11 02:15:16;;;;;;;38.17;27.67;;;;;;;12.92;100.00;101704.00;5020559;28;20329;-62
2022/09/11 02:18:00;;;;;;;36.15;27.10;;;;;;;12.90;100.00;101699.81;5008413;28;20034;-61
2022/09/11 02:20:27;;;;;;;38.72;29.38;;;;;;;12.86;100.00;101704.91;5020217;28;20468;-62
2022/09/11 02:22:52;;;;;;;39.17;29.33;;;;;;;12.86;100.00;101704.91;5020084;28;20029;-62
2022/09/11 02:25:18;;;;;;;37.55;27.23;;;;;;;12.88;100.00;101710.22;5014993;28;20049;-62
2022/09/11 02:27:43;;;;;;;37.50;27.07;;;;;;;12.81;100.00;101715.78;4990110;28;20480;-61
2022/09/11 02:30:09;;;;;;;31.60;24.17;;;;;;;12.73;100.00;101718.81;5008412;28;20297;-62
2022/09/11 02:32:37;;;;;;;33.38;25.60;;;;;;;12.68;100.00;101719.50;5009080;28;20359;-62
2022/09/11 02:35:03;;;;;;;34.70;24.70;;;;;;;12.67;100.00;101726.09;5017930;28;20381;-61
2022/09/11 02:37:55;;;;;;;35.38;25.90;;;;;;;12.68;100.00;101732.44;5008639;28;20056;-62
2022/09/11 02:40:37;;;;;;;35.83;25.70;;;;;;;12.68;100.00;101724.16;5026013;28;20096;-61
2022/09/11 02:43:23;;;;;;;37.40;26.90;;;;;;;12.69;100.00;101723.09;5019450;28;20041;-61
2022/09/11 02:46:11;;;;;;;44.78;29.70;;;;;;;12.68;100.00;101716.75;5015158;28;20396;-62
2022/09/11 02:48:59;;;;;;;40.58;28.73;;;;;;;12.70;100.00;101720.09;5019438;28;20064;-62
2022/09/11 02:51:32;;;;;;;;;;;;;;;12.80;100.00;101721.53;5024644;28;20038;-62
2022/09/11 02:54:36;;;;;;;40.00;28.88;;;;;;;12.69;100.00;101723.94;5012342;28;19957;-62
2022/09/11 02:57:06;;;;;;;40.22;29.83;;;;;;;12.68;100.00;101725.00;4925629;29;20064;-62
2022/09/11 02:59:37;;;;;;;35.42;26.13;;;;;;;12.58;100.00;101719.16;4926912;29;20043;-62
2022/09/11 03:02:08;;;;;;;42.17;28.92;;;;;;;12.54;100.00;101733.59;4979053;28;20048;-61
2022/09/11 03:04:35;;;;;;;37.88;29.10;;;;;;;12.52;100.00;101732.94;5014460;28;20017;-61
2022/09/11 03:07:02;;;;;;;42.17;29.27;;;;;;;12.50;100.00;101726.81;5025993;28;20084;-62
2022/09/11 03:09:27;;;;;;;40.67;29.30;;;;;;;12.46;100.00;101737.44;5018401;28;20424;-63
2022/09/11 03:11:54;;;;;;;41.60;28.85;;;;;;;12.45;100.00;101738.50;5014089;28;20136;-61
2022/09/11 03:14:19;;;;;;;40.50;28.17;;;;;;;12.47;100.00;101744.66;5013695;28;20061;-62
2022/09/11 03:16:44;;;;;;;39.58;28.30;;;;;;;12.45;100.00;101741.25;5023241;28;20069;-61
2022/09/11 03:19:11;;;;;;;35.85;28.30;;;;;;;12.40;100.00;101741.94;5010294;28;20084;-62
2022/09/11 03:21:37;;;;;;;38.65;28.15;;;;;;;12.38;100.00;101744.06;5011155;28;20041;-61
2022/09/11 03:24:03;;;;;;;40.72;28.80;;;;;;;12.41;100.00;101740.00;5021786;28;20030;-61
2022/09/11 03:26:30;;;;;;;38.17;27.20;;;;;;;12.39;100.00;101736.66;5025095;28;20034;-62
2022/09/11 03:28:56;;;;;;;39.63;27.13;;;;;;;12.37;100.00;101736.88;5010991;28;20018;-61
2022/09/11 03:31:21;;;;;;;32.38;24.70;;;;;;;12.32;100.00;101736.69;5023756;28;20032;-62
2022/09/11 03:33:46;;;;;;;37.03;26.20;;;;;;;12.34;100.00;101740.06;5029225;28;20030;-62
2022/09/11 03:36:12;;;;;;;34.80;25.77;;;;;;;12.30;100.00;101744.31;5019227;28;20124;-61
2022/09/11 03:38:38;;;;;;;34.22;26.13;;;;;;;12.30;100.00;101746.22;5012408;28;20034;-62
2022/09/11 03:41:04;;;;;;;37.78;25.95;;;;;;;12.29;100.00;101747.28;5019427;28;20056;-62
2022/09/11 03:43:31;;;;;;;35.72;26.02;;;;;;;12.35;100.00;101744.50;5015305;28;20026;-63
2022/09/11 03:45:56;;;;;;;35.88;26.15;;;;;;;12.33;100.00;101743.88;5010062;28;20026;-63
2022/09/11 03:48:22;;;;;;;33.17;25.05;;;;;;;12.30;100.00;101741.56;5010071;28;20026;-62
2022/09/11 03:50:47;;;;;;;35.00;24.67;;;;;;;12.31;100.00;101743.25;5014778;28;20384;-61
2022/09/11 03:53:13;;;;;;;38.55;26.00;;;;;;;12.34;100.00;101750.22;5020626;28;20053;-63
2022/09/11 03:55:39;;;;;;;50.03;28.52;;;;;;;12.34;100.00;101744.72;5028517;28;20779;-62
2022/09/11 03:58:06;;;;;;;61.13;31.67;;;;;;;12.35;100.00;101747.25;5028650;28;20037;-63
2022/09/11 04:00:31;;;;;;;59.38;30.40;;;;;;;12.38;100.00;101749.56;5017856;28;20349;-62
2022/09/11 04:02:57;;;;;;;79.50;33.97;;;;;;;12.41;100.00;101749.13;5010306;28;20033;-62
2022/09/11 04:05:24;;;;;;;52.13;31.95;;;;;;;12.42;100.00;101748.06;5014840;28;20487;-62
2022/09/11 04:07:51;;;;;;;124.38;29.80;;;;;;;12.38;100.00;101748.72;5013973;28;20037;-61
2022/09/11 04:10:16;;;;;;;140.52;31.58;;;;;;;12.29;100.00;101750.06;5025739;28;20045;-62
2022/09/11 04:12:43;;;;;;;82.47;31.08;;;;;;;12.33;100.00;101752.16;5013880;28;20041;-61
2022/09/11 04:15:08;;;;;;;85.25;31.08;;;;;;;12.30;100.00;101751.72;5023778;28;20393;-61
2022/09/11 04:17:33;;;;;;;104.38;32.63;;;;;;;12.28;100.00;101748.38;5018141;28;20037;-62
2022/09/11 04:19:59;;;;;;;85.30;31.30;;;;;;;12.22;100.00;101752.00;5008399;28;20033;-62
2022/09/11 04:22:25;;;;;;;58.35;28.92;;;;;;;12.20;100.00;101750.28;5012446;28;20132;-61
2022/09/11 04:24:50;;;;;;;64.15;31.77;;;;;;;12.22;100.00;101744.59;5028179;28;20033;-65
2022/09/11 04:27:16;;;;;;;67.00;32.08;;;;;;;12.17;100.00;101749.91;5017773;28;20045;-61
2022/09/11 04:29:42;;;;;;;62.25;30.48;;;;;;;12.16;100.00;101742.69;5020311;28;20074;-61
2022/09/11 04:32:07;;;;;;;63.30;32.22;;;;;;;12.12;100.00;101739.53;5026286;28;20075;-62
2022/09/11 04:34:32;;;;;;;59.20;31.98;;;;;;;12.16;100.00;101750.94;5017245;28;20057;-61
2022/09/11 04:36:58;;;;;;;56.53;31.25;;;;;;;12.16;100.00;101751.78;5010841;28;20034;-62
2022/09/11 04:39:23;;;;;;;56.10;31.38;;;;;;;12.14;100.00;101753.09;5024003;28;20025;-62
2022/09/11 04:41:48;;;;;;;50.97;30.92;;;;;;;12.10;100.00;101747.16;5008750;28;20025;-63
2022/09/11 04:44:13;;;;;;;65.38;30.35;;;;;;;12.04;100.00;101750.78;5010183;28;20026;-61
2022/09/11 04:46:40;;;;;;;74.28;30.17;;;;;;;12.01;100.00;101755.88;5025277;28;20041;-62
2022/09/11 04:49:07;;;;;;;51.80;30.02;;;;;;;11.98;100.00;101753.59;5014761;28;20084;-62
2022/09/11 04:51:35;;;;;;;48.47;29.00;;;;;;;11.98;100.00;101759.09;5014011;28;20046;-61
2022/09/11 04:54:02;;;;;;;46.63;29.98;;;;;;;11.95;100.00;101757.59;5020650;28;20112;-63
2022/09/11 04:56:30;;;;;;;49.03;29.73;;;;;;;11.91;100.00;101754.47;5012679;28;20402;-61
2022/09/11 04:59:01;;;;;;;45.67;28.27;;;;;;;11.93;100.00;101773.50;5009530;28;20292;-61
2022/09/11 05:01:28;;;;;;;54.67;29.65;;;;;;;11.86;100.00;101761.66;5008643;28;20042;-62
2022/09/11 05:03:55;;;;;;;60.10;30.48;;;;;;;11.85;100.00;101763.56;5010985;28;20040;-62
2022/09/11 05:06:21;;;;;;;45.80;30.25;;;;;;;11.83;100.00;101751.94;5023759;28;20033;-62
2022/09/11 05:08:47;;;;;;;50.75;29.92;;;;;;;11.78;100.00;101759.97;5023597;28;20468;-62
2022/09/11 05:11:14;;;;;;;53.95;29.38;;;;;;;11.78;100.00;101762.72;5014180;28;20075;-62
2022/09/11 05:13:41;;;;;;;75.03;31.98;;;;;;;11.79;100.00;101769.91;5022205;28;20045;-62
2022/09/11 05:16:14;;;;;;;70.25;31.48;;;;;;;11.79;100.00;101769.91;5017524;28;20037;-62
2022/09/11 05:18:41;;;;;;;57.85;30.42;;;;;;;11.80;100.00;101779.00;5018842;28;20029;-61
2022/09/11 05:21:11;;;;;;;59.45;30.20;;;;;;;11.83;100.00;101782.22;5025690;28;20041;-62
2022/09/11 05:23:37;;;;;;;43.90;28.77;;;;;;;11.83;100.00;101786.88;5026718;28;20495;-62
2022/09/11 05:26:04;;;;;;;43.53;26.70;;;;;;;11.77;100.00;101784.97;5011170;28;20042;-61
2022/09/11 05:28:30;;;;;;;39.33;23.87;;;;;;;11.68;100.00;101796.19;5012783;28;20030;-61
2022/09/11 05:30:56;;;;;;;47.15;24.00;;;;;;;11.58;100.00;101790.28;4995170;28;20029;-62
2022/09/11 05:33:23;;;;;;;48.35;27.83;;;;;;;11.56;100.00;101792.41;5011160;28;20029;-62
2022/09/11 05:35:52;;;;;;;55.78;28.75;;;;;;;11.63;100.00;101801.50;5010813;28;20029;-64
2022/09/11 05:38:19;;;;;;;58.03;28.52;;;;;;;11.69;100.00;101802.53;5023654;28;20028;-61
2022/09/11 05:40:47;;;;;;;62.05;28.60;;;;;;;11.70;100.00;101812.47;5009266;28;20034;-62
2022/09/11 05:43:14;;;;;;;64.13;29.10;;;;;;;11.75;100.00;101814.59;5007031;28;20484;-62
2022/09/11 05:45:39;;;;;;;63.83;30.42;;;;;;;11.82;100.00;101824.56;5008852;28;20026;-61
2022/09/11 05:48:05;;;;;;;109.88;32.78;;;;;;;11.87;100.00;101827.53;5007919;28;20033;-62
2022/09/11 05:50:31;;;;;;;86.85;32.17;;;;;;;11.94;100.00;101828.34;5015222;28;20060;-61
2022/09/11 05:52:57;;;;;;;87.50;32.33;;;;;;;12.03;100.00;101831.72;5023029;28;20060;-62
2022/09/11 05:55:22;;;;;;;63.28;31.98;;;;;;;12.09;100.00;101833.59;5012479;28;20093;-61
2022/09/11 05:57:51;;;;;;;68.18;32.33;;;;;;;12.12;100.00;101838.69;5021872;28;20025;-62
2022/09/11 06:00:16;;;;;;;76.13;31.63;;;;;;;12.15;100.00;101840.16;5012415;28;20384;-62
2022/09/11 06:02:41;;;;;;;61.55;28.70;;;;;;;12.17;100.00;101838.03;5015550;28;20072;-63
2022/09/11 06:05:07;;;;;;;80.82;30.98;;;;;;;12.23;100.00;101842.66;5016136;28;20090;-62
2022/09/11 06:07:34;;;;;;;70.60;30.20;;;;;;;12.31;100.00;101841.56;5027077;28;20025;-61
2022/09/11 06:09:59;;;;;;;78.40;30.38;;;;;;;12.36;100.00;101848.09;5010281;28;20030;-62
2022/09/11 06:12:27;;;;;;;67.35;31.38;;;;;;;12.43;100.00;101848.94;5019892;28;20056;-61
2022/09/11 06:14:53;;;;;;;74.93;30.08;;;;;;;12.45;100.00;101854.22;5014812;28;20025;-61
2022/09/11 06:17:19;;;;;;;73.18;28.90;;;;;;;12.51;100.00;101850.59;5009081;28;20076;-62
2022/09/11 06:19:45;;;;;;;56.33;26.65;;;;;;;12.52;100.00;101863.31;5021000;28;20041;-62
2022/09/11 06:22:10;;;;;;;86.75;27.00;;;;;;;12.55;100.00;101853.75;5019453;28;20025;-62
2022/09/11 06:24:35;;;;;;;80.05;28.48;;;;;;;12.62;100.00;101854.56;5019962;28;20538;-61
2022/09/11 06:27:01;;;;;;;65.25;26.75;;;;;;;12.68;100.00;101856.47;5020369;28;20025;-61
2022/09/11 06:29:26;;;;;;;63.45;26.98;;;;;;;12.78;100.00;101861.50;5023264;28;20034;-61
2022/09/11 06:31:51;;;;;;;82.32;25.98;;;;;;;12.84;100.00;101869.72;5010776;28;20034;-61
2022/09/11 06:34:18;;;;;;;73.70;26.67;;;;;;;12.89;100.00;101863.56;5008322;28;20152;-61
2022/09/11 06:36:44;;;;;;;67.40;25.95;;;;;;;12.94;100.00;101872.00;5010398;28;20036;-61
2022/09/11 06:39:10;;;;;;;72.80;27.95;;;;;;;13.01;100.00;101866.44;5013188;28;20104;-62
2022/09/11 06:41:35;;;;;;;62.67;27.38;;;;;;;13.09;100.00;101867.03;5007188;28;20380;-61
2022/09/11 06:44:00;;;;;;;70.93;26.48;;;;;;;13.13;100.00;101868.28;5009409;28;20034;-61
2022/09/11 06:46:26;;;;;;;83.07;25.83;;;;;;;13.15;100.00;101868.03;5024162;28;20034;-61
2022/09/11 06:48:53;;;;;;;61.38;26.60;;;;;;;13.24;100.00;101873.09;5012530;28;20029;-61
2022/09/11 06:51:20;;;;;;;55.92;24.58;;;;;;;13.33;100.00;101878.34;5031356;28;20129;-62
2022/09/11 06:53:46;;;;;;;49.15;24.45;;;;;;;13.39;100.00;101875.53;5030796;28;20026;-61
2022/09/11 06:56:16;;;;;;;60.30;26.02;;;;;;;13.44;100.00;101881.22;5019296;28;20033;-62
2022/09/11 06:58:44;;;;;;;73.40;27.23;;;;;;;13.44;100.00;101885.91;5011525;28;20581;-62
2022/09/11 07:01:12;;;;;;;82.45;27.00;;;;;;;13.46;100.00;101883.75;5011267;28;20062;-61
2022/09/11 07:03:44;;;;;;;62.03;26.13;;;;;;;13.57;100.00;101887.69;5011474;28;20032;-62
2022/09/11 07:06:10;;;;;;;57.03;28.08;;;;;;;13.73;100.00;101887.13;5014409;28;20631;-61
2022/09/11 07:08:35;;;;;;;88.53;26.85;;;;;;;13.67;100.00;101882.53;5018668;28;20057;-62
2022/09/11 07:11:03;;;;;;;84.38;26.52;;;;;;;13.71;100.00;101890.13;5023347;28;20061;-61
2022/09/11 07:13:30;;;;;;;78.53;26.63;;;;;;;13.75;100.00;101887.75;5011224;28;20412;-61
2022/09/11 07:16:02;;;;;;;89.97;25.38;;;;;;;13.80;100.00;101882.41;5027432;28;20037;-61
2022/09/11 07:18:38;;;;;;;69.22;26.33;;;;;;;13.90;100.00;101887.41;5030989;28;20116;-61
2022/09/11 07:21:10;;;;;;;50.70;25.42;;;;;;;14.00;100.00;101874.78;5011645;28;20030;-62
2022/09/11 07:23:35;;;;;;;60.83;25.02;;;;;;;14.05;100.00;101873.25;5010069;28;20045;-61
2022/09/11 07:26:06;;;;;;;59.70;24.02;;;;;;;14.08;100.00;101883.81;4991988;28;20100;-61
2022/09/11 07:28:31;;;;;;;71.32;26.42;;;;;;;14.12;100.00;101882.28;5010596;28;20033;-62
2022/09/11 07:31:16;;;;;;;54.92;25.30;;;;;;;14.27;100.00;101877.22;5009706;28;20220;-61
2022/09/11 07:33:44;;;;;;;64.57;26.05;;;;;;;14.35;100.00;101876.94;5010260;28;20349;-61
2022/09/11 07:36:15;;;;;;;52.30;25.55;;;;;;;14.41;100.00;101878.78;5008894;28;20018;-62
2022/09/11 07:38:42;;;;;;;51.97;24.35;;;;;;;14.41;100.00;101887.06;5009379;28;20021;-61
2022/09/11 07:41:08;;;;;;;41.65;25.73;;;;;;;14.53;100.00;101882.47;5009363;28;20037;-62
2022/09/11 07:43:38;;;;;;;60.42;26.63;;;;;;;14.57;100.00;101884.78;5010195;28;20030;-61
2022/09/11 07:46:04;;;;;;;67.63;25.80;;;;;;;14.64;100.00;101886.38;5009850;28;20088;-62
2022/09/11 07:48:30;;;;;;;38.70;25.42;;;;;;;14.86;100.00;101883.13;5013561;28;20025;-62
2022/09/11 07:50:58;;;;;;;59.80;26.00;;;;;;;14.85;100.00;101884.19;4992092;28;20653;-62
2022/09/11 07:53:24;;;;;;;38.85;24.92;;;;;;;15.02;100.00;101888.84;5009043;28;20057;-61
2022/09/11 07:55:49;;;;;;;50.22;25.98;;;;;;;15.11;100.00;101891.28;5022540;28;20026;-62
2022/09/11 07:58:14;;;;;;;55.75;27.15;;;;;;;15.19;100.00;101890.94;5029694;28;20029;-61
2022/09/11 08:00:40;;;;;;;55.35;26.58;;;;;;;15.23;100.00;101897.69;5030055;28;20034;-63
2022/09/11 08:03:05;;;;;;;41.67;27.10;;;;;;;15.38;100.00;101902.78;5029467;28;20029;-62
2022/09/11 08:05:30;;;;;;;33.42;27.02;;;;;;;15.64;100.00;101904.31;5029355;28;20350;-62
2022/09/11 08:07:55;;;;;;;38.47;26.67;;;;;;;15.72;100.00;101909.50;5028765;28;20029;-62
2022/09/11 08:10:21;;;;;;;34.80;26.90;;;;;;;15.77;100.00;101909.63;5029277;28;20287;-63
2022/09/11 08:12:46;;;;;;;38.50;26.45;;;;;;;15.95;100.00;101908.66;5011255;28;20713;-62
2022/09/11 08:15:11;;;;;;;34.78;27.58;;;;;;;16.25;100.00;101912.16;5029581;28;20103;-62
2022/09/11 08:17:37;;;;;;;36.05;27.58;;;;;;;16.34;100.00;101915.41;5029318;28;20418;-62
2022/09/11 08:20:02;;;;;;;39.33;27.93;;;;;;;16.34;100.00;101915.41;5028934;28;20038;-62
2022/09/11 08:22:27;;;;;;;34.13;27.63;;;;;;;16.31;100.00;101924.19;5010538;28;20276;-61
2022/09/11 08:24:53;;;;;;;34.70;28.10;;;;;;;16.22;100.00;101926.50;5028949;28;20372;-63
2022/09/11 08:27:18;;;;;;;37.07;27.90;;;;;;;16.25;100.00;101928.78;5028707;28;20272;-63
2022/09/11 08:29:44;;;;;;;41.05;31.02;;;;;;;16.21;100.00;101921.19;5029381;28;20272;-62
2022/09/11 08:32:10;;;;;;;38.55;28.67;;;;;;;16.21;100.00;101922.03;5028937;28;20116;-62
2022/09/11 08:34:37;;;;;;;42.70;31.67;;;;;;;16.26;100.00;101924.06;5029105;28;20129;-62
2022/09/11 08:37:02;;;;;;;41.60;32.03;;;;;;;16.31;100.00;101926.97;5028105;28;20144;-62
2022/09/11 08:39:27;;;;;;;41.92;32.63;;;;;;;16.47;100.00;101931.75;5027605;28;20113;-61
2022/09/11 08:42:01;;;;;;;43.00;32.00;;;;;;;16.40;99.59;101936.59;5008771;28;20345;-62
2022/09/11 08:44:40;;;;;;;41.88;32.40;;;;;;;16.42;100.00;101942.75;5017474;28;20310;-62
2022/09/11 08:47:14;;;;;;;42.38;32.38;;;;;;;16.56;100.00;101938.63;5028305;28;20047;-62
2022/09/11 08:49:47;;;;;;;44.15;32.60;;;;;;;16.79;100.00;101934.16;5027787;28;20017;-62
2022/09/11 08:52:15;;;;;;;43.53;32.95;;;;;;;16.81;98.96;101938.34;5027456;28;20136;-62
2022/09/11 08:54:42;;;;;;;40.40;31.48;;;;;;;16.97;96.54;101939.50;5028677;28;20060;-62
2022/09/11 08:57:26;;;;;;;41.78;32.47;;;;;;;17.36;97.42;101937.78;5027636;28;20056;-62
2022/09/11 09:00:13;;;;;;;40.65;31.10;;;;;;;17.83;94.18;101933.88;5028458;28;20031;-62
2022/09/11 09:02:58;;;;;;;38.13;30.13;;;;;;;19.29;91.33;101933.38;5028380;28;20917;-63
2022/09/11 09:05:42;;;;;;;37.72;29.23;;;;;;;21.74;79.97;101926.38;5028348;28;20033;-62
2022/09/11 09:08:46;;;;;;;31.60;25.73;;;;;;;23.78;75.55;101925.63;5027461;28;20025;-62
2022/09/11 09:11:30;;;;;;;31.20;24.77;;;;;;;25.18;67.60;101930.25;5027382;28;20037;-63
2022/09/11 09:14:19;;;;;;;28.65;22.77;;;;;;;26.52;64.97;101931.38;5027719;28;20085;-63
2022/09/11 09:17:19;;;;;;;28.08;22.55;;;;;;;27.42;60.76;101931.66;5028520;28;20029;-64
2022/09/11 09:20:04;;;;;;;27.95;21.77;;;;;;;27.86;57.62;101936.53;5027495;28;20060;-64
2022/09/11 09:22:53;;;;;;;27.92;22.50;;;;;;;28.16;56.06;101931.25;5010056;28;20065;-65
2022/09/11 09:25:24;;;;;;;26.48;22.08;;;;;;;28.37;49.14;101937.19;5009183;28;20032;-65
2022/09/11 09:28:00;;;;;;;28.88;23.27;;;;;;;28.60;47.58;101940.81;5008093;28;20107;-65
2022/09/11 09:30:29;;;;;;;27.27;22.30;;;;;;;28.35;47.25;101945.19;5008268;28;20452;-65
2022/09/11 09:33:07;;;;;;;26.48;23.15;;;;;;;26.35;54.64;101948.84;5007534;28;20065;-64
2022/09/11 09:35:40;;;;;;;;;;;;;;;26.75;60.48;101939.94;5008765;28;20033;-63
2022/09/11 09:38:18;;;;;;;30.58;24.58;;;;;;;25.54;56.68;101948.25;5007339;28;19913;-63
2022/09/11 09:41:20;;;;;;;30.10;25.27;;;;;;;26.61;57.37;101940.78;5008025;28;20148;-63
2022/09/11 09:43:51;;;;;;;29.10;24.67;;;;;;;27.71;50.95;101938.91;5008549;28;20041;-63
2022/09/11 09:46:51;;;;;;;28.73;24.75;;;;;;;28.49;51.35;101945.91;5008288;28;20586;-63
2022/09/11 09:49:30;;;;;;;27.42;22.80;;;;;;;29.97;46.84;101944.16;5003725;28;20038;-62
2022/09/11 09:51:57;;;;;;;28.40;22.95;;;;;;;30.70;42.18;101941.28;5006298;28;20073;-63
2022/09/11 09:54:28;;;;;;;27.85;23.13;;;;;;;31.03;42.12;101938.59;5008030;28;20026;-63
2022/09/11 09:57:14;;;;;;;28.23;24.48;;;;;;;31.58;45.17;101939.53;5007219;28;20037;-63
2022/09/11 09:59:46;;;;;;;27.00;23.60;;;;;;;31.85;40.64;101941.81;5007695;28;20061;-63
2022/09/11 10:02:11;;;;;;;28.05;22.52;;;;;;;32.17;37.64;101942.13;4989553;28;20022;-63
2022/09/11 10:04:37;;;;;;;28.42;22.15;;;;;;;32.66;35.67;101936.56;5007967;28;20041;-63
2022/09/11 10:07:19;;;;;;;31.17;25.25;;;;;;;31.85;39.23;101927.63;5007128;28;20125;-63
2022/09/11 10:09:55;;;;;;;30.50;24.42;;;;;;;30.70;40.67;101932.78;5008102;28;20045;-63
2022/09/11 10:12:24;;;;;;;30.25;25.50;;;;;;;28.30;44.37;101936.81;5007252;28;20056;-62
2022/09/11 10:14:54;;;;;;;30.60;25.20;;;;;;;26.55;50.23;101930.72;5007511;28;20115;-64
2022/09/11 10:17:22;;;;;;;26.33;21.85;;;;;;;25.19;52.70;101938.38;5007537;28;20029;-62
2022/09/11 10:19:54;;;;;;;;;;;;;;;24.97;56.00;101940.91;5011130;28;20486;-64
2022/09/11 10:22:25;;;;;;;29.15;22.33;;;;;;;23.17;59.45;101940.88;5006914;28;19917;-63
2022/09/11 10:25:10;;;;;;;33.60;25.95;;;;;;;22.65;63.31;101941.34;5024161;28;20036;-63
2022/09/11 10:27:45;;;;;;;32.45;25.48;;;;;;;21.94;65.10;101937.56;5026672;28;20037;-63
2022/09/11 10:30:43;;;;;;;29.27;23.38;;;;;;;21.70;65.69;101937.31;5026767;28;20033;-63
2022/09/11 10:33:22;;;;;;;;;;;;;;;21.82;65.45;101938.97;5018998;28;20515;-63
2022/09/11 10:35:55;;;;;;;26.50;20.67;;;;;;;22.75;64.28;101932.91;5027300;28;19913;-63
2022/09/11 10:38:29;;;;;;;23.75;18.02;;;;;;;25.46;55.19;101931.25;5027255;28;20041;-63
2022/09/11 10:41:04;;;;;;;28.02;20.60;;;;;;;27.73;47.80;101920.53;5026233;28;20025;-63
2022/09/11 10:44:01;;;;;;;27.30;21.15;;;;;;;29.51;44.92;101925.03;5027055;28;20029;-63
2022/09/11 10:46:36;;;;;;;24.17;17.80;;;;;;;30.52;42.86;101928.34;5022659;28;20075;-63
2022/09/11 10:49:01;;;;;;;24.30;18.20;;;;;;;30.74;39.43;101926.06;5026611;28;20030;-63
2022/09/11 10:51:29;;;;;;;24.37;18.30;;;;;;;31.45;36.01;101924.44;5026009;28;20088;-63
2022/09/11 10:54:02;;;;;;;20.58;15.60;;;;;;;31.13;37.97;101926.84;5026532;28;20097;-63
2022/09/11 10:56:28;;;;;;;19.63;14.75;;;;;;;32.02;37.28;101927.41;5026249;28;20021;-63
2022/09/11 10:59:02;;;;;;;19.50;16.17;;;;;;;32.78;34.72;101930.84;5026748;28;20434;-62
2022/09/11 11:01:27;;;;;;;18.17;15.60;;;;;;;32.77;34.21;101929.19;5026677;28;20467;-63
2022/09/11 11:03:55;;;;;;;22.27;15.32;;;;;;;33.27;33.71;101927.97;5019794;28;20025;-62
2022/09/11 11:06:34;;;;;;;18.48;12.95;;;;;;;34.14;33.06;101927.28;5006236;28;20483;-63
2022/09/11 11:09:22;;;;;;;20.45;14.30;;;;;;;34.93;33.49;101924.44;5007095;28;20029;-63
2022/09/11 11:12:09;;;;;;;22.13;15.38;;;;;;;34.22;33.96;101929.13;5006679;28;20030;-62
2022/09/11 11:15:04;;;;;;;21.02;16.02;;;;;;;34.32;33.41;101922.06;5020363;28;20029;-62
2022/09/11 11:18:10;;;;;;;23.40;17.20;;;;;;;34.19;33.51;101915.59;5026613;28;20354;-63
2022/09/11 11:21:02;;;;;;;21.63;15.60;;;;;;;33.65;32.65;101921.78;4984551;28;20039;-62
2022/09/11 11:23:58;;;;;;;23.42;16.13;;;;;;;32.43;33.48;101921.94;4984426;28;20297;-63